Time;durP1;ratioP1;P1;durP2;ratioP2;P2;SDS_P1;SDS_P2;PMS_P1;PMS_P2;Temp;Humidity;BMP_temperature;BMP_pressure;BME280_temperature;BME280_humidity;BME280_pressure;Samples;Min_cycle;Max_cycle;Signal;HPM_P1;HPM_P2
2022/12/23 00:00:09;;;;;;;196.57;52.88;;;6.60;99.90;;;;;;5058637;28;20490;-70
2022/12/23 00:02:34;;;;;;;241.13;56.95;;;6.90;99.90;;;;;;5039111;28;20033;-70
2022/12/23 00:05:00;;;;;;;250.65;61.70;;;8.00;99.90;;;;;;5039181;28;20083;-70
2022/12/23 00:07:25;;;;;;;201.63;50.80;;;7.40;99.90;;;;;;5043259;28;20486;-70
2022/12/23 00:09:51;;;;;;;172.82;49.78;;;7.40;99.90;;;;;;5057296;28;20086;-70
2022/12/23 00:15:04;;;;;;;177.17;49.73;;;7.30;99.90;;;;;;5060559;28;20076;-70
2022/12/23 00:17:30;;;;;;;184.57;49.42;;;7.40;99.90;;;;;;5022351;28;20032;-70
2022/12/23 00:19:56;;;;;;;156.55;48.80;;;7.50;99.90;;;;;;5058196;28;20045;-70
2022/12/23 00:23:03;;;;;;;163.15;51.20;;;7.30;99.90;;;;;;5039928;28;20117;-70
2022/12/23 00:25:11;;;;;;;217.32;55.00;;;7.50;99.90;;;;;;5035321;28;20041;-71
2022/12/23 00:27:37;;;;;;;175.07;50.47;;;7.60;99.90;;;;;;5027619;28;20044;-72
2022/12/23 00:30:04;;;;;;;171.15;49.63;;;7.50;99.90;;;;;;5036561;28;20043;-70
2022/12/23 00:32:30;;;;;;;183.52;49.25;;;7.80;99.90;;;;;;5036974;28;20418;-71
2022/12/23 00:34:55;;;;;;;170.68;46.58;;;7.90;99.90;;;;;;5050838;28;20036;-71
2022/12/23 00:37:21;;;;;;;191.82;50.63;;;7.40;99.90;;;;;;5044746;28;20037;-70
2022/12/23 00:45:14;;;;;;;202.02;52.03;;;7.50;99.90;;;;;;5061074;28;20061;-71
2022/12/23 00:50:25;;;;;;;;;;;7.10;99.90;;;;;;5042834;28;20044;-71
2022/12/23 00:52:51;;;;;;;202.95;49.65;;;7.40;99.90;;;;;;5051987;28;19922;-71
2022/12/23 00:55:17;;;;;;;183.85;50.15;;;;;;;;;;5058948;28;20413;-71
2022/12/23 00:57:43;;;;;;;153.73;46.60;;;6.90;99.90;;;;;;5050379;28;20099;-71
2022/12/23 01:00:09;;;;;;;144.48;44.20;;;6.80;99.90;;;;;;5036326;28;20040;-72
2022/12/23 01:05:37;;;;;;;160.63;47.20;;;7.70;99.90;;;;;;5061451;28;20049;-71
2022/12/23 01:08:05;;;;;;;156.27;45.13;;;7.20;99.90;;;;;;5038232;28;20345;-71
2022/12/23 01:10:31;;;;;;;142.38;45.58;;;7.50;99.90;;;;;;5036065;28;20047;-72
2022/12/23 01:12:56;;;;;;;177.68;51.47;;;7.30;99.90;;;;;;5043511;28;20033;-72
2022/12/23 01:15:22;;;;;;;150.60;46.50;;;7.80;99.90;;;;;;5017543;28;20041;-71
2022/12/23 01:17:48;;;;;;;185.38;51.08;;;7.00;99.90;;;;;;5037048;28;20041;-71
2022/12/23 01:20:14;;;;;;;174.60;49.65;;;7.40;99.90;;;;;;5059623;28;20033;-71
2022/12/23 01:22:39;;;;;;;199.55;53.67;;;7.30;99.90;;;;;;5064686;28;20089;-71
2022/12/23 01:25:05;;;;;;;150.30;47.13;;;6.80;99.90;;;;;;5042750;28;20164;-72
2022/12/23 01:27:31;;;;;;;173.27;47.97;;;6.70;99.90;;;;;;5041965;28;20493;-72
2022/12/23 01:29:56;;;;;;;172.85;49.80;;;7.50;99.90;;;;;;5051021;28;20037;-71
2022/12/23 01:32:22;;;;;;;206.75;53.33;;;7.20;99.90;;;;;;5041244;28;20036;-71
2022/12/23 01:34:47;;;;;;;187.02;51.85;;;7.40;99.90;;;;;;5057280;28;20080;-71
2022/12/23 01:37:13;;;;;;;194.50;50.03;;;7.40;99.90;;;;;;5043934;28;20414;-72
2022/12/23 01:39:39;;;;;;;203.15;53.65;;;7.20;99.90;;;;;;5062531;28;20048;-71
2022/12/23 01:45:26;;;;;;;169.48;49.00;;;6.80;99.90;;;;;;5049837;28;20052;-72
2022/12/23 01:47:51;;;;;;;159.55;47.58;;;6.50;99.90;;;;;;5042742;28;20036;-72
2022/12/23 01:50:17;;;;;;;159.65;49.17;;;7.00;99.90;;;;;;5053685;28;20040;-72
2022/12/23 01:52:52;;;;;;;152.13;44.15;;;6.80;99.90;;;;;;5061831;28;20422;-71
2022/12/23 01:55:21;;;;;;;145.57;42.40;;;6.90;99.90;;;;;;5039739;28;20083;-72
2022/12/23 01:57:47;;;;;;;138.93;41.55;;;7.20;99.90;;;;;;5033955;28;20371;-72
2022/12/23 02:05:44;;;;;;;109.75;35.63;;;6.70;99.90;;;;;;5047428;28;20040;-72
2022/12/23 02:11:13;;;;;;;107.47;34.40;;;6.70;99.90;;;;;;5061938;28;20506;-72
2022/12/23 02:17:20;;;;;;;100.57;34.17;;;7.40;99.90;;;;;;5035480;28;20477;-71
2022/12/23 02:19:57;;;;;;;105.40;34.58;;;6.80;99.90;;;;;;5041351;28;20128;-72
2022/12/23 02:23:03;;;;;;;108.93;33.83;;;6.70;99.90;;;;;;5039213;28;20128;-73
2022/12/23 02:25:29;;;;;;;110.32;34.92;;;6.70;99.90;;;;;;5011258;28;20486;-72
2022/12/23 02:28:19;;;;;;;94.30;32.88;;;6.60;99.90;;;;;;5041729;28;20095;-72
2022/12/23 02:30:59;;;;;;;108.25;34.65;;;6.70;99.90;;;;;;5034055;28;20080;-72
2022/12/23 02:33:30;;;;;;;96.88;31.17;;;;;;;;;;5041790;28;20086;-72
2022/12/23 02:36:24;;;;;;;100.15;32.97;;;7.20;99.90;;;;;;5050142;28;20032;-72
2022/12/23 02:39:05;;;;;;;92.50;30.60;;;6.90;99.90;;;;;;5032892;28;20506;-72
2022/12/23 02:42:09;;;;;;;95.85;32.00;;;7.40;99.90;;;;;;5056649;28;20462;-71
2022/12/23 02:44:46;;;;;;;96.57;30.25;;;7.20;99.90;;;;;;5027681;28;20053;-71
2022/12/23 02:47:35;;;;;;;98.55;29.52;;;7.40;99.90;;;;;;5042184;28;20051;-71
2022/12/23 02:50:09;;;;;;;102.35;30.67;;;6.50;99.90;;;;;;5057145;28;20400;-72
2022/12/23 02:52:36;;;;;;;;;;;6.40;99.90;;;;;;5044941;28;20036;-72
2022/12/23 02:55:10;;;;;;;78.00;26.52;;;7.20;99.90;;;;;;5034026;28;20619;-71
2022/12/23 02:57:41;;;;;;;81.10;26.60;;;7.30;99.90;;;;;;5056541;28;20033;-71
2022/12/23 03:00:07;;;;;;;101.65;27.42;;;6.80;99.90;;;;;;5035375;28;20040;-71
2022/12/23 03:02:34;;;;;;;81.40;26.60;;;7.30;99.90;;;;;;5050322;28;20035;-71
2022/12/23 03:05:00;;;;;;;84.25;26.45;;;7.30;99.90;;;;;;5036170;28;20048;-72
2022/12/23 03:07:32;;;;;;;93.10;27.75;;;6.60;99.90;;;;;;5062343;28;20036;-71
2022/12/23 03:10:26;;;;;;;70.32;24.00;;;7.10;99.90;;;;;;5049361;28;20039;-71
2022/12/23 03:13:35;;;;;;;81.38;26.95;;;7.30;99.90;;;;;;5062891;28;20032;-71
2022/12/23 03:16:15;;;;;;;76.63;28.45;;;7.60;99.90;;;;;;4966480;28;20089;-71
2022/12/23 03:19:00;;;;;;;75.97;26.00;;;7.10;99.90;;;;;;4937231;28;20535;-71
2022/12/23 03:21:39;;;;;;;72.63;26.10;;;6.90;99.90;;;;;;5021593;28;20064;-70
2022/12/23 03:24:11;;;;;;;65.28;23.67;;;7.20;99.90;;;;;;5040891;28;20044;-70
2022/12/23 03:26:58;;;;;;;89.35;28.30;;;7.30;99.90;;;;;;5045966;28;20047;-71
2022/12/23 03:29:30;;;;;;;92.57;29.20;;;6.80;99.90;;;;;;5047110;28;20123;-71
2022/12/23 03:31:58;;;;;;;67.70;23.88;;;7.10;99.90;;;;;;5050838;28;20068;-71
2022/12/23 03:34:29;;;;;;;86.55;28.13;;;;;;;;;;5036555;28;20119;-71
2022/12/23 03:36:59;;;;;;;92.45;29.25;;;6.70;99.90;;;;;;5045430;28;20032;-71
2022/12/23 03:39:31;;;;;;;92.28;28.88;;;7.10;99.90;;;;;;5065170;28;20040;-71
2022/12/23 03:42:05;;;;;;;90.20;28.88;;;7.40;99.90;;;;;;5059471;28;20032;-71
2022/12/23 03:44:36;;;;;;;93.07;29.90;;;7.50;99.90;;;;;;5056611;28;20044;-71
2022/12/23 03:47:17;;;;;;;94.32;28.33;;;6.90;99.90;;;;;;5041917;28;20036;-72
2022/12/23 03:49:47;;;;;;;93.65;30.90;;;7.10;99.90;;;;;;5061879;28;20052;-71
2022/12/23 03:52:17;;;;;;;98.05;30.15;;;6.20;99.90;;;;;;5048226;28;20041;-71
2022/12/23 03:54:52;;;;;;;101.00;32.03;;;7.00;99.90;;;;;;5038825;28;20036;-71
2022/12/23 03:57:20;;;;;;;98.47;29.35;;;6.90;99.90;;;;;;5039995;28;20474;-71
2022/12/23 03:59:52;;;;;;;90.32;28.27;;;6.70;99.90;;;;;;5044479;28;20059;-71
2022/12/23 04:02:18;;;;;;;91.32;28.77;;;6.70;99.90;;;;;;5067405;28;20036;-73
2022/12/23 04:04:52;;;;;;;104.18;31.17;;;6.60;99.90;;;;;;5048477;28;20044;-71
2022/12/23 04:07:28;;;;;;;108.85;28.63;;;6.90;99.90;;;;;;5041109;28;20048;-72
2022/12/23 04:09:55;;;;;;;98.78;29.15;;;6.70;99.90;;;;;;5042982;28;20032;-71
2022/12/23 04:12:22;;;;;;;108.82;29.73;;;7.10;99.90;;;;;;5044294;28;20360;-71
2022/12/23 04:14:48;;;;;;;97.70;28.90;;;6.40;99.90;;;;;;5051275;28;20120;-71
2022/12/23 04:17:15;;;;;;;90.45;28.30;;;6.70;99.90;;;;;;5046090;28;20041;-71
2022/12/23 04:19:44;;;;;;;105.97;29.58;;;6.90;99.90;;;;;;5049416;28;20482;-71
2022/12/23 04:22:10;;;;;;;101.47;28.95;;;6.70;99.90;;;;;;5062289;28;20108;-71
2022/12/23 04:24:36;;;;;;;108.18;28.45;;;6.80;99.90;;;;;;5021611;28;20454;-70
2022/12/23 04:27:01;;;;;;;102.13;29.70;;;6.70;99.90;;;;;;5045277;28;20047;-70
2022/12/23 04:29:27;;;;;;;100.78;29.92;;;6.50;99.90;;;;;;5065080;28;20040;-71
2022/12/23 04:31:53;;;;;;;79.70;25.35;;;7.10;99.90;;;;;;5067145;28;20456;-71
2022/12/23 04:34:18;;;;;;;97.30;31.27;;;6.80;99.90;;;;;;5059490;28;20041;-72
2022/12/23 04:36:44;;;;;;;139.57;35.72;;;6.40;99.90;;;;;;5060132;28;20033;-71
2022/12/23 04:39:09;;;;;;;110.18;30.77;;;6.30;99.90;;;;;;5060735;28;20070;-70
2022/12/23 04:41:35;;;;;;;90.85;28.05;;;6.70;99.90;;;;;;5027085;28;20116;-71
2022/12/23 04:44:01;;;;;;;143.93;35.30;;;6.90;99.90;;;;;;5052556;28;20041;-72
2022/12/23 04:46:26;;;;;;;101.18;27.60;;;6.60;99.90;;;;;;5046170;28;20091;-70
2022/12/23 04:48:52;;;;;;;110.72;30.15;;;7.20;99.90;;;;;;5045139;28;20043;-70
2022/12/23 04:51:17;;;;;;;90.75;28.40;;;7.30;99.90;;;;;;5063494;28;20045;-70
2022/12/23 04:53:43;;;;;;;84.07;25.90;;;7.00;99.90;;;;;;5036258;28;20039;-70
2022/12/23 04:56:09;;;;;;;98.57;28.33;;;;;;;;;;5059130;28;20028;-71
2022/12/23 04:58:34;;;;;;;120.13;30.88;;;7.20;99.90;;;;;;5057953;28;20090;-70
2022/12/23 05:01:08;;;;;;;98.15;29.35;;;6.90;99.90;;;;;;5046221;28;20029;-70
2022/12/23 05:03:34;;;;;;;100.88;29.58;;;;;;;;;;5060969;28;20112;-70
2022/12/23 05:06:00;;;;;;;100.57;27.25;;;6.70;99.90;;;;;;5033363;28;20044;-70
2022/12/23 05:08:26;;;;;;;110.43;31.02;;;7.10;99.90;;;;;;5053526;28;20037;-70
2022/12/23 05:10:51;;;;;;;113.55;30.55;;;6.90;99.90;;;;;;5056694;28;20514;-70
2022/12/23 05:13:17;;;;;;;92.05;26.52;;;;;;;;;;5031163;28;20045;-70
2022/12/23 05:15:49;;;;;;;83.63;27.98;;;7.30;99.90;;;;;;5031178;28;20489;-71
2022/12/23 05:18:15;;;;;;;101.03;29.25;;;7.20;99.90;;;;;;5027584;28;20045;-70
2022/12/23 05:20:40;;;;;;;77.43;25.40;;;7.20;99.90;;;;;;5037076;28;20120;-70
2022/12/23 05:23:06;;;;;;;75.60;25.10;;;7.30;99.90;;;;;;5039663;28;20040;-70
2022/12/23 05:25:34;;;;;;;85.65;26.20;;;7.00;99.90;;;;;;5044544;28;20636;-70
2022/12/23 05:27:59;;;;;;;71.25;26.02;;;6.60;99.90;;;;;;5040274;28;20060;-70
2022/12/23 05:30:25;;;;;;;72.00;25.42;;;6.90;99.90;;;;;;5038755;28;20506;-70
2022/12/23 05:32:55;;;;;;;66.05;23.90;;;6.90;99.90;;;;;;5037135;28;20056;-72
2022/12/23 05:35:22;;;;;;;66.72;23.05;;;6.90;99.90;;;;;;5061690;28;20037;-71
2022/12/23 05:37:48;;;;;;;71.97;25.65;;;6.90;99.90;;;;;;5015562;28;20040;-71
2022/12/23 05:40:14;;;;;;;78.28;25.67;;;7.00;99.90;;;;;;5059130;28;20082;-71
2022/12/23 05:42:39;;;;;;;59.65;23.48;;;6.80;99.90;;;;;;5041815;28;20036;-71
2022/12/23 05:45:06;;;;;;;67.18;22.25;;;7.30;99.90;;;;;;5019322;28;20037;-71
2022/12/23 05:47:32;;;;;;;70.97;25.67;;;7.30;99.90;;;;;;5052773;28;20044;-71
2022/12/23 05:49:57;;;;;;;76.68;24.85;;;6.70;99.90;;;;;;5039372;28;20033;-71
2022/12/23 05:52:23;;;;;;;67.03;23.95;;;7.70;99.90;;;;;;5046931;28;20041;-72
2022/12/23 05:54:48;;;;;;;74.32;25.05;;;7.30;99.90;;;;;;5066131;28;20046;-71
2022/12/23 05:57:14;;;;;;;60.90;21.13;;;7.20;99.90;;;;;;5049079;28;20085;-71
2022/12/23 05:59:40;;;;;;;54.75;20.63;;;7.00;99.90;;;;;;5066396;28;20036;-71
2022/12/23 06:02:05;;;;;;;59.70;20.88;;;7.20;99.90;;;;;;5047304;28;20028;-72
2022/12/23 06:04:31;;;;;;;58.08;19.95;;;7.20;99.90;;;;;;5061065;28;20102;-72
2022/12/23 06:06:57;;;;;;;56.35;20.42;;;6.90;99.90;;;;;;5050424;28;20037;-72
2022/12/23 06:09:22;;;;;;;50.50;18.67;;;7.00;99.90;;;;;;5054423;28;20043;-72
2022/12/23 06:11:48;;;;;;;61.15;21.25;;;6.90;99.90;;;;;;5034018;28;20049;-72
2022/12/23 06:14:14;;;;;;;67.35;22.83;;;6.70;99.90;;;;;;5058902;28;20040;-71
2022/12/23 06:16:39;;;;;;;80.82;25.20;;;6.80;99.90;;;;;;5060798;28;20713;-71
2022/12/23 06:19:05;;;;;;;62.58;21.10;;;6.30;99.90;;;;;;5061885;28;20057;-72
2022/12/23 06:21:31;;;;;;;68.55;21.48;;;6.60;99.90;;;;;;5031497;28;20036;-71
2022/12/23 06:23:56;;;;;;;52.42;20.83;;;7.10;99.90;;;;;;5050684;28;20052;-71
2022/12/23 06:26:22;;;;;;;68.35;22.95;;;6.90;99.90;;;;;;5052631;28;20041;-71
2022/12/23 06:28:48;;;;;;;62.55;21.27;;;6.40;99.90;;;;;;5044311;28;20041;-71
2022/12/23 06:31:14;;;;;;;52.13;19.33;;;6.60;99.90;;;;;;5049635;28;20040;-71
2022/12/23 06:33:40;;;;;;;39.03;16.98;;;6.30;99.90;;;;;;5050759;28;20044;-71
2022/12/23 06:36:06;;;;;;;46.33;18.27;;;6.50;99.90;;;;;;5043524;28;20091;-71
2022/12/23 06:38:32;;;;;;;47.17;17.65;;;6.60;99.90;;;;;;5055811;28;20073;-71
2022/12/23 06:40:58;;;;;;;40.10;16.17;;;6.70;99.90;;;;;;5040384;28;20108;-71
2022/12/23 06:43:23;;;;;;;47.67;16.27;;;6.20;99.90;;;;;;5044449;28;20175;-71
2022/12/23 06:45:49;;;;;;;32.85;14.10;;;6.30;99.90;;;;;;5034414;28;20041;-71
2022/12/23 06:48:15;;;;;;;40.72;16.20;;;6.30;99.90;;;;;;5041242;28;20110;-71
2022/12/23 06:50:42;;;;;;;40.80;15.88;;;6.90;99.90;;;;;;5058462;28;20039;-71
2022/12/23 06:53:08;;;;;;;37.13;14.60;;;6.50;99.90;;;;;;5036389;28;20116;-71
2022/12/23 06:55:34;;;;;;;36.30;15.32;;;6.20;99.90;;;;;;5040925;28;20041;-71
2022/12/23 06:57:59;;;;;;;32.63;15.07;;;6.90;99.90;;;;;;5056982;28;20116;-71
2022/12/23 07:00:25;;;;;;;35.13;15.75;;;;;;;;;;5043745;28;20041;-71
2022/12/23 07:02:54;;;;;;;36.88;15.63;;;7.00;99.90;;;;;;5033962;28;20065;-71
2022/12/23 07:05:20;;;;;;;35.95;14.63;;;6.60;99.90;;;;;;5060100;28;20069;-71
2022/12/23 07:07:45;;;;;;;41.22;16.45;;;7.00;99.90;;;;;;5045871;28;20544;-71
2022/12/23 07:10:11;;;;;;;36.50;14.07;;;7.00;99.90;;;;;;5039378;28;20044;-71
2022/12/23 07:12:37;;;;;;;33.50;14.30;;;6.70;99.90;;;;;;5051497;28;20119;-71
2022/12/23 07:15:04;;;;;;;37.15;14.57;;;7.00;99.90;;;;;;5033317;28;20059;-71
2022/12/23 07:17:30;;;;;;;39.13;14.45;;;6.50;99.90;;;;;;5053417;28;20497;-72
2022/12/23 07:19:55;;;;;;;38.15;16.30;;;6.90;99.90;;;;;;5057089;28;20572;-71
2022/12/23 07:22:21;;;;;;;39.75;15.07;;;6.70;99.90;;;;;;5055595;28;20025;-71
2022/12/23 07:24:47;;;;;;;40.55;16.00;;;;;;;;;;5034758;28;20041;-71
2022/12/23 07:27:13;;;;;;;46.22;17.10;;;6.30;99.90;;;;;;5034249;28;20041;-71
2022/12/23 07:29:38;;;;;;;45.03;15.95;;;6.20;99.90;;;;;;5028662;28;20110;-72
2022/12/23 07:32:04;;;;;;;31.50;14.68;;;6.40;99.90;;;;;;5055052;28;20115;-72
2022/12/23 07:34:30;;;;;;;31.85;14.27;;;;;;;;;;5055682;28;20037;-72
2022/12/23 07:36:55;;;;;;;36.28;14.95;;;6.50;99.90;;;;;;5037509;28;20146;-72
2022/12/23 07:39:21;;;;;;;47.15;16.85;;;;;;;;;;5057727;28;20056;-72
2022/12/23 07:41:47;;;;;;;44.03;15.25;;;6.90;99.90;;;;;;5037822;28;20044;-72
2022/12/23 07:44:13;;;;;;;43.08;16.75;;;6.60;99.90;;;;;;5038279;28;20109;-71
2022/12/23 07:46:39;;;;;;;44.78;16.92;;;6.20;99.90;;;;;;5051992;28;20052;-71
2022/12/23 07:49:05;;;;;;;40.97;15.10;;;6.50;99.90;;;;;;5055259;28;20037;-72
2022/12/23 07:51:31;;;;;;;49.92;18.33;;;7.10;99.90;;;;;;5051836;28;20083;-72
2022/12/23 07:53:57;;;;;;;44.15;17.15;;;6.90;99.90;;;;;;5046509;28;20075;-72
2022/12/23 07:56:22;;;;;;;53.70;18.48;;;6.20;99.90;;;;;;5062960;28;20440;-73
2022/12/23 07:58:49;;;;;;;51.38;17.98;;;6.50;99.90;;;;;;5052608;28;20434;-73
2022/12/23 08:01:15;;;;;;;53.78;16.15;;;7.00;99.90;;;;;;5063020;28;20040;-73
2022/12/23 08:03:41;;;;;;;46.33;17.05;;;7.00;99.90;;;;;;5040891;28;20036;-73
2022/12/23 08:06:11;;;;;;;51.83;17.38;;;6.90;99.90;;;;;;5040818;28;20043;-73
2022/12/23 08:08:38;;;;;;;52.38;18.85;;;6.00;99.90;;;;;;5052529;28;20040;-73
2022/12/23 08:11:06;;;;;;;55.72;18.20;;;7.10;99.90;;;;;;5043452;28;20040;-73
2022/12/23 08:13:34;;;;;;;52.63;18.27;;;6.50;99.90;;;;;;5059110;28;20043;-73
2022/12/23 08:16:01;;;;;;;45.72;17.58;;;;;;;;;;5038056;28;20040;-73
2022/12/23 08:18:30;;;;;;;43.83;15.50;;;6.40;99.90;;;;;;5038909;28;20509;-73
2022/12/23 08:21:01;;;;;;;40.55;15.73;;;6.50;99.90;;;;;;5046434;28;20065;-73
2022/12/23 08:23:28;;;;;;;59.40;18.08;;;7.10;99.90;;;;;;5025720;28;20119;-73
2022/12/23 08:26:05;;;;;;;58.55;20.52;;;6.90;99.90;;;;;;5047901;28;20528;-73
2022/12/23 08:28:31;;;;;;;52.92;19.02;;;6.40;99.90;;;;;;5065395;28;20040;-73
2022/12/23 08:31:12;;;;;;;44.47;18.33;;;6.70;99.90;;;;;;5052162;28;20041;-73
2022/12/23 08:33:40;;;;;;;46.03;18.25;;;6.60;99.90;;;;;;5041902;28;20094;-73
2022/12/23 08:36:07;;;;;;;42.53;15.63;;;6.70;99.90;;;;;;5042757;28;20037;-73
2022/12/23 08:38:34;;;;;;;55.60;19.52;;;7.00;99.90;;;;;;5059170;28;20097;-73
2022/12/23 08:41:00;;;;;;;62.78;20.85;;;;;;;;;;5070751;28;20028;-73
2022/12/23 08:43:26;;;;;;;55.08;18.98;;;6.20;99.90;;;;;;5052731;28;20452;-73
2022/12/23 08:45:52;;;;;;;52.50;19.25;;;6.40;99.90;;;;;;5067090;28;20072;-73
2022/12/23 08:48:17;;;;;;;60.50;19.02;;;6.30;99.90;;;;;;5023866;28;20037;-73
2022/12/23 08:50:45;;;;;;;58.13;20.17;;;6.40;99.90;;;;;;5044273;28;20068;-73
2022/12/23 08:53:12;;;;;;;47.17;17.52;;;6.70;99.90;;;;;;5064131;28;20036;-73
2022/12/23 08:55:39;;;;;;;59.15;22.45;;;6.90;99.90;;;;;;5068699;28;20048;-73
2022/12/23 08:58:05;;;;;;;52.72;19.65;;;6.30;99.90;;;;;;5064003;28;20071;-73
2022/12/23 09:00:31;;;;;;;59.97;20.83;;;6.70;99.90;;;;;;5055415;28;20094;-73
2022/12/23 09:02:57;;;;;;;54.75;21.60;;;7.00;99.90;;;;;;5021217;28;20029;-73
2022/12/23 09:05:22;;;;;;;42.90;19.08;;;7.10;99.90;;;;;;5061797;28;20409;-73
2022/12/23 09:07:48;;;;;;;41.83;17.10;;;6.90;99.90;;;;;;5019977;28;20052;-73
2022/12/23 09:10:14;;;;;;;47.85;19.52;;;6.60;99.90;;;;;;5060488;28;20044;-73
2022/12/23 09:12:39;;;;;;;42.08;16.70;;;7.30;99.90;;;;;;5062353;28;20097;-73
2022/12/23 09:15:06;;;;;;;44.53;18.40;;;6.70;99.90;;;;;;5040767;28;20041;-73
2022/12/23 09:17:32;;;;;;;40.40;17.40;;;6.70;99.90;;;;;;5062322;28;20055;-73
2022/12/23 09:19:57;;;;;;;47.45;17.95;;;7.50;99.90;;;;;;5034443;28;20120;-73
2022/12/23 09:22:23;;;;;;;53.85;18.73;;;;;;;;;;5032550;28;20570;-73
2022/12/23 09:24:49;;;;;;;54.28;18.60;;;7.10;99.90;;;;;;5050255;28;20040;-73
2022/12/23 09:27:15;;;;;;;55.85;19.50;;;;;;;;;;5049574;28;20498;-73
2022/12/23 09:29:41;;;;;;;42.50;16.02;;;6.40;99.90;;;;;;5021972;28;20406;-73
2022/12/23 09:32:06;;;;;;;40.75;16.92;;;7.50;99.90;;;;;;5035681;28;20041;-73
2022/12/23 09:34:32;;;;;;;40.70;15.60;;;7.00;99.90;;;;;;5035167;28;20111;-73
2022/12/23 09:36:58;;;;;;;45.00;17.60;;;7.30;99.90;;;;;;5037306;28;20421;-73
2022/12/23 09:39:24;;;;;;;42.92;18.48;;;7.50;99.90;;;;;;5034293;28;20486;-73
2022/12/23 09:42:45;;;;;;;41.83;18.02;;;7.30;99.90;;;;;;5054637;28;20403;-72
2022/12/23 09:45:24;;;;;;;52.78;19.90;;;7.50;99.90;;;;;;5046405;28;20135;-72
2022/12/23 09:47:54;;;;;;;45.58;18.40;;;7.60;99.90;;;;;;5070690;28;20056;-72
2022/12/23 09:50:25;;;;;;;41.50;15.90;;;7.30;99.90;;;;;;5048539;28;20036;-72
2022/12/23 09:53:05;;;;;;;42.58;16.40;;;7.90;99.90;;;;;;5032106;28;20113;-72
2022/12/23 09:55:52;;;;;;;46.92;17.63;;;7.90;99.90;;;;;;5055125;28;20446;-72
2022/12/23 09:58:33;;;;;;;40.45;16.00;;;7.20;99.90;;;;;;5051597;28;20477;-72
2022/12/23 10:01:16;;;;;;;39.85;15.27;;;7.70;99.90;;;;;;5068088;28;20033;-72
2022/12/23 10:04:13;;;;;;;38.08;15.48;;;7.70;99.90;;;;;;5045796;28;20516;-72
2022/12/23 10:06:40;;;;;;;30.45;12.90;;;7.00;99.90;;;;;;5051680;28;20044;-73
2022/12/23 10:09:08;;;;;;;35.75;14.68;;;7.60;99.90;;;;;;5067910;28;20116;-73
2022/12/23 10:11:42;;;;;;;32.45;12.80;;;7.40;99.90;;;;;;5046471;28;20049;-72
2022/12/23 10:14:19;;;;;;;32.80;12.97;;;7.70;99.90;;;;;;5048512;28;20033;-72
2022/12/23 10:16:49;;;;;;;28.90;12.48;;;7.70;99.90;;;;;;5050315;28;20126;-72
2022/12/23 10:19:33;;;;;;;27.98;11.18;;;7.30;99.90;;;;;;5062208;28;20039;-72
2022/12/23 10:22:02;;;;;;;26.40;11.05;;;7.20;99.90;;;;;;5053739;28;20461;-72
2022/12/23 10:24:39;;;;;;;29.33;11.10;;;7.50;99.90;;;;;;5050185;28;20086;-72
2022/12/23 10:27:33;;;;;;;22.52;10.13;;;7.30;99.90;;;;;;5049385;28;20119;-72
2022/12/23 10:30:20;;;;;;;20.75;8.85;;;7.80;99.90;;;;;;5035486;28;20409;-72
2022/12/23 10:32:59;;;;;;;19.90;8.82;;;7.40;99.90;;;;;;5047413;28;20040;-72
2022/12/23 10:36:02;;;;;;;22.15;9.43;;;7.00;99.90;;;;;;5037705;28;20048;-73
2022/12/23 10:38:49;;;;;;;18.10;8.55;;;7.60;99.90;;;;;;5063551;28;20495;-72
2022/12/23 10:41:22;;;;;;;23.95;9.38;;;7.70;99.90;;;;;;5031303;28;20037;-72
2022/12/23 10:44:06;;;;;;;21.52;9.48;;;7.20;99.90;;;;;;5044786;28;20505;-72
2022/12/23 10:46:49;;;;;;;19.48;7.65;;;7.00;99.90;;;;;;5039204;28;20443;-72
2022/12/23 10:49:23;;;;;;;18.70;7.85;;;7.80;99.90;;;;;;5035478;28;20043;-72
2022/12/23 10:52:01;;;;;;;22.38;8.25;;;7.70;99.90;;;;;;5057538;28;20037;-72
2022/12/23 10:54:32;;;;;;;22.55;8.60;;;7.40;99.90;;;;;;5052069;28;20037;-72
2022/12/23 10:56:59;;;;;;;21.83;8.10;;;7.30;99.90;;;;;;5033294;28;20052;-73
2022/12/23 10:59:30;;;;;;;21.52;8.00;;;8.10;99.90;;;;;;5034911;28;20033;-72
2022/12/23 11:02:11;;;;;;;18.00;8.57;;;8.20;99.90;;;;;;5057268;28;20429;-72
2022/12/23 11:04:48;;;;;;;21.25;9.13;;;7.80;99.90;;;;;;5036197;28;20044;-72
2022/12/23 11:07:28;;;;;;;20.83;8.30;;;8.10;99.90;;;;;;5036241;28;20368;-72
2022/12/23 11:09:58;;;;;;;16.05;8.48;;;8.30;99.90;;;;;;5043343;28;20037;-72
2022/12/23 11:12:40;;;;;;;16.35;8.15;;;8.50;99.90;;;;;;5033869;28;20501;-72
2022/12/23 11:15:29;;;;;;;15.25;6.35;;;8.20;99.90;;;;;;5044582;28;20219;-72
2022/12/23 11:18:12;;;;;;;15.20;6.53;;;8.30;99.90;;;;;;5056212;28;20391;-72
2022/12/23 11:20:40;;;;;;;15.55;6.32;;;8.10;99.90;;;;;;5031763;28;20112;-72
2022/12/23 11:23:23;;;;;;;13.13;5.80;;;7.90;99.90;;;;;;5036727;28;20048;-72
2022/12/23 11:26:08;;;;;;;14.63;5.80;;;8.10;99.90;;;;;;5057905;28;20047;-72
2022/12/23 11:28:51;;;;;;;15.43;6.10;;;8.30;99.90;;;;;;5054776;28;20044;-72
2022/12/23 11:31:27;;;;;;;14.43;5.70;;;8.30;99.90;;;;;;5053919;28;20041;-72
2022/12/23 11:34:01;;;;;;;15.40;6.97;;;8.40;99.90;;;;;;5037590;28;20033;-73
2022/12/23 11:36:28;;;;;;;14.77;6.95;;;8.20;99.90;;;;;;5068099;28;20040;-72
2022/12/23 11:39:03;;;;;;;18.25;7.40;;;7.80;99.90;;;;;;5049013;28;20171;-73
2022/12/23 11:41:42;;;;;;;16.30;8.57;;;8.20;99.90;;;;;;5037569;28;20037;-72
2022/12/23 11:44:30;;;;;;;18.65;9.40;;;8.40;99.90;;;;;;5035110;28;20033;-72
2022/12/23 11:46:56;;;;;;;21.67;10.48;;;;;;;;;;5057357;28;20442;-71
2022/12/23 11:49:30;;;;;;;22.65;10.35;;;8.60;99.90;;;;;;5050910;28;20065;-73
2022/12/23 11:52:04;;;;;;;22.33;9.80;;;8.60;99.90;;;;;;5047211;28;20048;-74
2022/12/23 11:54:32;;;;;;;23.80;9.85;;;8.60;99.90;;;;;;5040869;28;20187;-74
2022/12/23 11:57:00;;;;;;;16.80;8.88;;;8.00;99.90;;;;;;5067497;28;20094;-71
2022/12/23 11:59:43;;;;;;;24.80;12.48;;;8.00;99.90;;;;;;5066640;28;20040;-72
2022/12/23 12:02:26;;;;;;;24.02;10.60;;;8.10;99.90;;;;;;5063572;28;20057;-72
2022/12/23 12:05:32;;;;;;;22.40;10.80;;;8.30;99.90;;;;;;5051237;28;20036;-71
2022/12/23 12:08:19;;;;;;;24.52;11.88;;;8.10;99.90;;;;;;5034367;28;20514;-71
2022/12/23 12:10:45;;;;;;;27.95;12.25;;;7.60;99.90;;;;;;5058253;22;20438;-61
2022/12/23 12:13:47;;;;;;;29.27;12.73;;;7.90;99.90;;;;;;5061019;28;20127;-59
2022/12/23 12:16:39;;;;;;;26.40;11.75;;;7.70;99.90;;;;;;5059594;28;20059;-60
2022/12/23 12:19:26;;;;;;;24.85;11.43;;;8.20;99.90;;;;;;5046377;28;20037;-60
2022/12/23 12:21:58;;;;;;;23.38;10.95;;;8.10;99.90;;;;;;5045189;28;20406;-59
2022/12/23 12:24:29;;;;;;;22.95;9.88;;;7.80;99.90;;;;;;5045694;28;20037;-61
2022/12/23 12:27:00;;;;;;;20.42;9.75;;;7.80;99.90;;;;;;5046122;28;20037;-59
2022/12/23 12:29:30;;;;;;;25.33;11.43;;;8.10;99.90;;;;;;5017499;28;20033;-61
2022/12/23 12:31:58;;;;;;;21.90;11.00;;;8.20;99.90;;;;;;5023440;28;20384;-60
2022/12/23 12:34:57;;;;;;;23.65;11.07;;;8.10;99.90;;;;;;5035341;28;20042;-59
2022/12/23 12:37:29;;;;;;;23.38;10.93;;;8.60;99.90;;;;;;5032036;28;20449;-60
2022/12/23 12:39:57;;;;;;;26.98;11.30;;;7.80;99.90;;;;;;5036557;28;20029;-60
2022/12/23 12:42:33;;;;;;;29.42;12.38;;;7.90;99.90;;;;;;5035454;28;20044;-60
2022/12/23 12:45:28;;;;;;;29.95;12.65;;;8.30;99.90;;;;;;5043693;28;20071;-61
2022/12/23 12:48:12;;;;;;;25.67;11.35;;;8.40;99.90;;;;;;5046609;28;20131;-63
2022/12/23 12:51:05;;;;;;;26.70;12.02;;;8.20;99.90;;;;;;5048567;28;20098;-64
2022/12/23 12:53:32;;;;;;;26.73;13.02;;;8.10;99.90;;;;;;5044041;28;20048;-61
2022/12/23 12:56:14;;;;;;;28.67;12.55;;;8.30;99.90;;;;;;5038196;28;20414;-61
2022/12/23 12:58:43;;;;;;;29.48;13.00;;;7.50;99.90;;;;;;5028024;28;20072;-60
2022/12/23 13:01:34;;;;;;;26.13;11.93;;;7.90;99.90;;;;;;5038169;28;20368;-60
2022/12/23 13:04:21;;;;;;;30.52;12.50;;;8.00;99.90;;;;;;5045246;28;20124;-60
2022/12/23 13:06:52;;;;;;;29.08;12.40;;;;;;;;;;5047752;28;20064;-61
2022/12/23 13:09:37;;;;;;;28.73;11.95;;;7.90;99.90;;;;;;5049726;28;20441;-60
2022/12/23 13:12:08;;;;;;;34.60;14.73;;;8.10;99.90;;;;;;5049132;28;20108;-61
2022/12/23 13:15:02;;;;;;;29.80;13.00;;;7.70;99.90;;;;;;5047016;28;20052;-60
2022/12/23 13:17:40;;;;;;;28.90;13.50;;;7.70;99.90;;;;;;5041864;28;20431;-61
2022/12/23 13:20:14;;;;;;;35.80;13.75;;;7.50;99.90;;;;;;5045511;28;20108;-62
2022/12/23 13:22:43;;;;;;;24.27;11.38;;;7.40;99.90;;;;;;5048808;28;20425;-62
2022/12/23 13:25:43;;;;;;;26.38;11.48;;;7.90;99.90;;;;;;5049488;28;20040;-60
2022/12/23 13:28:34;;;;;;;25.75;11.02;;;7.50;99.90;;;;;;4984708;28;20110;-60
2022/12/23 13:31:25;;;;;;;28.98;11.38;;;7.60;99.90;;;;;;5049562;28;20087;-60